sensor_id;sensor_type;location;lat;lon;timestamp;P1;durP1;ratioP1;P2;durP2;ratioP2
65535;SDS011;52145;49.342;9.116;2023-11-18T09:25:17;8.20;;;5.90;;
65535;SDS011;52145;49.342;9.116;2023-11-18T09:27:47;18.33;;;11.13;;
65535;SDS011;52145;49.342;9.116;2023-11-18T09:30:14;28.63;;;14.73;;
65535;SDS011;52145;49.342;9.116;2023-11-18T09:32:40;11.70;;;6.10;;
65535;SDS011;52145;49.342;9.116;2023-11-18T09:35:12;10.07;;;5.75;;
65535;SDS011;52145;49.342;9.116;2023-11-18T09:37:38;9.63;;;5.82;;
65535;SDS011;52145;49.342;9.116;2023-11-18T09:40:10;6.95;;;4.30;;
65535;SDS011;52145;49.342;9.116;2023-11-18T09:42:38;8.80;;;4.10;;
65535;SDS011;52145;49.342;9.116;2023-11-18T09:45:05;7.38;;;3.60;;
65535;SDS011;52145;49.342;9.116;2023-11-18T09:47:33;6.18;;;3.88;;
65535;SDS011;52145;49.342;9.116;2023-11-18T09:50:06;7.55;;;4.28;;
65535;SDS011;52145;49.342;9.116;2023-11-18T09:52:35;5.20;;;3.47;;
65535;SDS011;52145;49.342;9.116;2023-11-18T09:55:09;7.28;;;3.50;;
65535;SDS011;52145;49.342;9.116;2023-11-18T09:57:40;5.97;;;3.78;;
65535;SDS011;52145;49.342;9.116;2023-11-18T10:00:07;8.85;;;3.90;;
65535;SDS011;52145;49.342;9.116;2023-11-18T10:02:52;8.20;;;4.75;;
65535;SDS011;52145;49.342;9.116;2023-11-18T10:05:21;8.32;;;4.65;;
65535;SDS011;52145;49.342;9.116;2023-11-18T10:07:47;7.10;;;4.15;;
65535;SDS011;52145;49.342;9.116;2023-11-18T10:10:13;7.80;;;5.60;;
65535;SDS011;52145;49.342;9.116;2023-11-18T10:12:43;9.50;;;5.88;;
65535;SDS011;52145;49.342;9.116;2023-11-18T10:15:11;8.10;;;4.32;;
65535;SDS011;52145;49.342;9.116;2023-11-18T10:17:44;7.18;;;4.22;;
65535;SDS011;52145;49.342;9.116;2023-11-18T10:23:07;7.20;;;4.63;;
65535;SDS011;52145;49.342;9.116;2023-11-18T10:25:35;7.43;;;4.47;;
65535;SDS011;52145;49.342;9.116;2023-11-18T10:28:05;10.35;;;4.03;;
65535;SDS011;52145;49.342;9.116;2023-11-18T10:30:31;7.53;;;4.15;;
65535;SDS011;52145;49.342;9.116;2023-11-18T10:32:58;8.60;;;4.47;;
65535;SDS011;52145;49.342;9.116;2023-11-18T10:35:32;9.20;;;5.40;;
65535;SDS011;52145;49.342;9.116;2023-11-18T10:37:59;7.90;;;4.90;;
65535;SDS011;52145;49.342;9.116;2023-11-18T10:40:31;8.20;;;5.03;;
65535;SDS011;52145;49.342;9.116;2023-11-18T10:43:00;11.65;;;5.65;;
65535;SDS011;52145;49.342;9.116;2023-11-18T10:45:26;7.95;;;5.57;;
65535;SDS011;52145;49.342;9.116;2023-11-18T10:47:52;6.90;;;5.03;;
65535;SDS011;52145;49.342;9.116;2023-11-18T10:50:21;8.10;;;4.78;;
65535;SDS011;52145;49.342;9.116;2023-11-18T10:52:56;7.75;;;5.47;;
65535;SDS011;52145;49.342;9.116;2023-11-18T10:55:22;7.63;;;5.80;;
65535;SDS011;52145;49.342;9.116;2023-11-18T10:57:51;7.40;;;5.10;;
65535;SDS011;52145;49.342;9.116;2023-11-18T11:00:18;11.68;;;5.88;;
65535;SDS011;52145;49.342;9.116;2023-11-18T11:02:44;8.45;;;4.82;;
65535;SDS011;52145;49.342;9.116;2023-11-18T11:05:27;9.35;;;5.20;;
65535;SDS011;52145;49.342;9.116;2023-11-18T11:07:57;8.25;;;4.55;;
65535;SDS011;52145;49.342;9.116;2023-11-18T11:10:24;7.60;;;4.10;;
65535;SDS011;52145;49.342;9.116;2023-11-18T11:12:53;8.27;;;5.07;;
65535;SDS011;52145;49.342;9.116;2023-11-18T11:15:26;6.90;;;4.90;;
65535;SDS011;52145;49.342;9.116;2023-11-18T11:17:55;9.50;;;4.85;;
65535;SDS011;52145;49.342;9.116;2023-11-18T11:20:27;7.40;;;4.45;;
65535;SDS011;52145;49.342;9.116;2023-11-18T11:28:22;5.63;;;4.43;;
65535;SDS011;52145;49.342;9.116;2023-11-18T11:35:42;11.68;;;4.25;;
65535;SDS011;52145;49.342;9.116;2023-11-18T11:38:09;7.03;;;3.72;;
65535;SDS011;52145;49.342;9.116;2023-11-18T11:40:38;5.53;;;3.33;;
65535;SDS011;52145;49.342;9.116;2023-11-18T11:43:07;6.05;;;3.85;;
65535;SDS011;52145;49.342;9.116;2023-11-18T11:45:35;5.75;;;3.50;;
65535;SDS011;52145;49.342;9.116;2023-11-18T11:48:01;5.70;;;3.25;;
65535;SDS011;52145;49.342;9.116;2023-11-18T11:51:20;6.30;;;3.58;;
65535;SDS011;52145;49.342;9.116;2023-11-18T11:54:11;5.75;;;3.65;;
65535;SDS011;52145;49.342;9.116;2023-11-18T11:56:47;5.43;;;3.10;;
65535;SDS011;52145;49.342;9.116;2023-11-18T11:59:17;6.47;;;3.60;;
65535;SDS011;52145;49.342;9.116;2023-11-18T12:01:47;8.57;;;3.70;;
65535;SDS011;52145;49.342;9.116;2023-11-18T12:04:17;8.70;;;3.72;;
65535;SDS011;52145;49.342;9.116;2023-11-18T12:06:49;6.85;;;3.38;;
65535;SDS011;52145;49.342;9.116;2023-11-18T12:09:21;6.20;;;3.37;;
65535;SDS011;52145;49.342;9.116;2023-11-18T12:11:47;6.82;;;3.03;;
65535;SDS011;52145;49.342;9.116;2023-11-18T12:14:16;4.75;;;3.20;;
65535;SDS011;52145;49.342;9.116;2023-11-18T12:17:21;5.47;;;3.45;;
65535;SDS011;52145;49.342;9.116;2023-11-18T12:19:46;5.30;;;3.15;;
65535;SDS011;52145;49.342;9.116;2023-11-18T12:22:13;5.45;;;3.10;;
65535;SDS011;52145;49.342;9.116;2023-11-18T12:25:28;7.00;;;3.10;;
65535;SDS011;52145;49.342;9.116;2023-11-18T12:27:41;5.10;;;3.63;;
65535;SDS011;52145;49.342;9.116;2023-11-18T12:35:23;6.47;;;3.65;;
65535;SDS011;52145;49.342;9.116;2023-11-18T12:43:03;5.28;;;3.30;;
65535;SDS011;52145;49.342;9.116;2023-11-18T12:45:41;7.50;;;4.72;;
